sensor_id;sensor_type;location;lat;lon;timestamp;pressure;altitude;pressure_sealevel;temperature;humidity
20696;BME280;10507;52.754;13.040;2023-04-07T00:01:54;101334.66;;;0.27;90.94
20696;BME280;10507;52.754;13.040;2023-04-07T00:04:22;101353.03;;;0.26;91.16
20696;BME280;10507;52.754;13.040;2023-04-07T00:06:51;101359.13;;;0.25;91.29
20696;BME280;10507;52.754;13.040;2023-04-07T00:09:18;101355.66;;;0.21;90.77
20696;BME280;10507;52.754;13.040;2023-04-07T00:11:46;101369.63;;;0.20;90.99
20696;BME280;10507;52.754;13.040;2023-04-07T00:14:16;101354.75;;;0.19;91.18
20696;BME280;10507;52.754;13.040;2023-04-07T00:16:44;101371.41;;;0.21;91.87
20696;BME280;10507;52.754;13.040;2023-04-07T00:19:13;101386.31;;;0.25;91.31
20696;BME280;10507;52.754;13.040;2023-04-07T00:21:41;101407.28;;;0.20;92.31
20696;BME280;10507;52.754;13.040;2023-04-07T00:24:09;101429.25;;;0.43;91.65
20696;BME280;10507;52.754;13.040;2023-04-07T00:26:41;101415.34;;;0.73;90.66
20696;BME280;10507;52.754;13.040;2023-04-07T00:29:09;101371.56;;;0.76;90.45
20696;BME280;10507;52.754;13.040;2023-04-07T00:31:40;101385.63;;;0.92;89.63
20696;BME280;10507;52.754;13.040;2023-04-07T00:34:08;101393.50;;;1.14;89.32
20696;BME280;10507;52.754;13.040;2023-04-07T00:36:36;101373.38;;;1.23;89.19
20696;BME280;10507;52.754;13.040;2023-04-07T00:39:05;101347.03;;;1.34;88.74
20696;BME280;10507;52.754;13.040;2023-04-07T00:41:33;101332.97;;;1.52;87.60
20696;BME280;10507;52.754;13.040;2023-04-07T00:44:01;101307.56;;;1.56;87.48
20696;BME280;10507;52.754;13.040;2023-04-07T00:46:32;101279.47;;;1.62;87.10
20696;BME280;10507;52.754;13.040;2023-04-07T00:49:03;101282.09;;;1.61;86.94
20696;BME280;10507;52.754;13.040;2023-04-07T00:51:40;101270.69;;;1.59;86.54
20696;BME280;10507;52.754;13.040;2023-04-07T00:54:09;101229.44;;;1.69;85.73
20696;BME280;10507;52.754;13.040;2023-04-07T00:56:38;101192.63;;;1.64;85.27
20696;BME280;10507;52.754;13.040;2023-04-07T00:59:09;101204.84;;;1.70;85.03
20696;BME280;10507;52.754;13.040;2023-04-07T01:01:42;101221.47;;;1.79;84.88
20696;BME280;10507;52.754;13.040;2023-04-07T01:04:19;101191.69;;;1.76;84.49
20696;BME280;10507;52.754;13.040;2023-04-07T01:06:50;101175.88;;;1.74;84.37
20696;BME280;10507;52.754;13.040;2023-04-07T01:09:23;101163.59;;;1.70;84.21
20696;BME280;10507;52.754;13.040;2023-04-07T01:11:58;101166.25;;;1.72;84.29
20696;BME280;10507;52.754;13.040;2023-04-07T01:14:33;101195.22;;;1.69;84.78
20696;BME280;10507;52.754;13.040;2023-04-07T01:17:09;101198.75;;;1.57;84.98
20696;BME280;10507;52.754;13.040;2023-04-07T01:19:47;101201.41;;;1.58;85.02
20696;BME280;10507;52.754;13.040;2023-04-07T01:22:23;101189.13;;;1.60;84.79
20696;BME280;10507;52.754;13.040;2023-04-07T01:25:05;101183.00;;;1.55;84.68
20696;BME280;10507;52.754;13.040;2023-04-07T01:27:46;101183.94;;;1.42;85.77
20696;BME280;10507;52.754;13.040;2023-04-07T01:30:19;101235.69;;;1.31;86.99
20696;BME280;10507;52.754;13.040;2023-04-07T01:32:52;101267.28;;;1.20;87.06
20696;BME280;10507;52.754;13.040;2023-04-07T01:35:35;101283.91;;;1.30;86.36
20696;BME280;10507;52.754;13.040;2023-04-07T01:38:06;101248.88;;;1.26;86.76
20696;BME280;10507;52.754;13.040;2023-04-07T01:40:36;101250.59;;;1.32;86.36
20696;BME280;10507;52.754;13.040;2023-04-07T01:43:07;101249.72;;;1.42;85.64
20696;BME280;10507;52.754;13.040;2023-04-07T01:45:41;101225.16;;;1.38;85.52
20696;BME280;10507;52.754;13.040;2023-04-07T01:48:11;101239.16;;;1.45;85.64
20696;BME280;10507;52.754;13.040;2023-04-07T01:50:45;101217.25;;;1.46;84.66
20696;BME280;10507;52.754;13.040;2023-04-07T01:53:16;101217.25;;;1.46;85.15
20696;BME280;10507;52.754;13.040;2023-04-07T01:55:46;101226.91;;;1.44;84.91
20696;BME280;10507;52.754;13.040;2023-04-07T01:58:17;101216.34;;;1.47;84.58
20696;BME280;10507;52.754;13.040;2023-04-07T02:00:47;101225.13;;;1.51;84.89
20696;BME280;10507;52.754;13.040;2023-04-07T02:03:22;101231.25;;;1.45;84.93
20696;BME280;10507;52.754;13.040;2023-04-07T02:05:54;101229.50;;;1.47;84.82
20696;BME280;10507;52.754;13.040;2023-04-07T02:08:27;101223.38;;;1.47;84.60
20696;BME280;10507;52.754;13.040;2023-04-07T02:10:58;101210.22;;;1.45;84.63
20696;BME280;10507;52.754;13.040;2023-04-07T02:13:29;101210.22;;;1.48;84.02
20696;BME280;10507;52.754;13.040;2023-04-07T02:16:00;101197.06;;;1.47;84.41
20696;BME280;10507;52.754;13.040;2023-04-07T02:18:28;101202.31;;;1.43;84.30
20696;BME280;10507;52.754;13.040;2023-04-07T02:20:58;101192.72;;;1.35;84.42
20696;BME280;10507;52.754;13.040;2023-04-07T02:23:28;101207.59;;;1.43;84.47
20696;BME280;10507;52.754;13.040;2023-04-07T02:25:57;101176.94;;;1.33;84.37
20696;BME280;10507;52.754;13.040;2023-04-07T02:28:26;101219.00;;;1.36;84.98
20696;BME280;10507;52.754;13.040;2023-04-07T02:30:55;101200.63;;;1.33;84.53
20696;BME280;10507;52.754;13.040;2023-04-07T02:33:28;101215.50;;;1.40;84.54
20696;BME280;10507;52.754;13.040;2023-04-07T02:36:02;101198.84;;;1.38;84.56
20696;BME280;10507;52.754;13.040;2023-04-07T02:38:31;101186.59;;;1.30;84.51
20696;BME280;10507;52.754;13.040;2023-04-07T02:40:59;101205.03;;;1.14;85.88
20696;BME280;10507;52.754;13.040;2023-04-07T02:43:27;101206.84;;;0.94;86.27
20696;BME280;10507;52.754;13.040;2023-04-07T02:45:56;101249.78;;;0.91;86.41
20696;BME280;10507;52.754;13.040;2023-04-07T02:48:24;101251.53;;;0.69;87.75
20696;BME280;10507;52.754;13.040;2023-04-07T02:50:53;101231.38;;;0.47;88.18
20696;BME280;10507;52.754;13.040;2023-04-07T02:53:22;101234.88;;;0.33;87.80
20696;BME280;10507;52.754;13.040;2023-04-07T02:55:50;101290.94;;;0.43;87.47
20696;BME280;10507;52.754;13.040;2023-04-07T02:58:18;101304.06;;;0.46;88.24
20696;BME280;10507;52.754;13.040;2023-04-07T03:00:47;101293.56;;;0.43;88.32
20696;BME280;10507;52.754;13.040;2023-04-07T03:03:16;101313.66;;;0.43;88.31
20696;BME280;10507;52.754;13.040;2023-04-07T03:05:45;101367.09;;;0.49;89.38
20696;BME280;10507;52.754;13.040;2023-04-07T03:08:17;101388.19;;;0.58;89.45
20696;BME280;10507;52.754;13.040;2023-04-07T03:10:45;101369.78;;;0.57;88.84
20696;BME280;10507;52.754;13.040;2023-04-07T03:13:14;101419.72;;;0.61;89.86
20696;BME280;10507;52.754;13.040;2023-04-07T03:15:44;101382.91;;;0.57;89.77
20696;BME280;10507;52.754;13.040;2023-04-07T03:18:13;101399.59;;;0.65;89.21
20696;BME280;10507;52.754;13.040;2023-04-07T03:20:44;101382.06;;;0.75;88.19
20696;BME280;10507;52.754;13.040;2023-04-07T03:23:15;101348.78;;;0.74;87.68
20696;BME280;10507;52.754;13.040;2023-04-07T03:25:45;101364.59;;;0.88;87.44
20696;BME280;10507;52.754;13.040;2023-04-07T03:28:16;101325.13;;;0.85;87.45
20696;BME280;10507;52.754;13.040;2023-04-07T03:30:45;101326.00;;;0.96;86.71
20696;BME280;10507;52.754;13.040;2023-04-07T03:33:14;101300.63;;;0.90;86.72
20696;BME280;10507;52.754;13.040;2023-04-07T03:35:42;101294.50;;;0.99;86.66
20696;BME280;10507;52.754;13.040;2023-04-07T03:38:10;101281.34;;;0.94;86.45
20696;BME280;10507;52.754;13.040;2023-04-07T03:40:39;101268.19;;;0.87;86.69
20696;BME280;10507;52.754;13.040;2023-04-07T03:43:09;101280.44;;;0.78;87.07
20696;BME280;10507;52.754;13.040;2023-04-07T03:45:41;101299.72;;;0.71;87.11
20696;BME280;10507;52.754;13.040;2023-04-07T03:48:09;101290.06;;;0.55;87.67
20696;BME280;10507;52.754;13.040;2023-04-07T03:50:38;101306.72;;;0.52;88.35
20696;BME280;10507;52.754;13.040;2023-04-07T03:53:07;101292.66;;;0.39;88.27
20696;BME280;10507;52.754;13.040;2023-04-07T03:55:35;101303.16;;;0.43;87.96
20696;BME280;10507;52.754;13.040;2023-04-07T03:58:04;101344.34;;;0.53;88.58
20696;BME280;10507;52.754;13.040;2023-04-07T04:00:34;101355.75;;;0.62;88.44
20696;BME280;10507;52.754;13.040;2023-04-07T04:03:02;101322.47;;;0.55;87.34
20696;BME280;10507;52.754;13.040;2023-04-07T04:05:31;101348.75;;;0.65;88.12
20696;BME280;10507;52.754;13.040;2023-04-07T04:07:59;101345.25;;;0.64;87.93
20696;BME280;10507;52.754;13.040;2023-04-07T04:10:27;101341.75;;;0.64;88.02
20696;BME280;10507;52.754;13.040;2023-04-07T04:12:55;101299.69;;;0.40;88.37
20696;BME280;10507;52.754;13.040;2023-04-07T04:15:26;101352.25;;;0.59;87.87
20696;BME280;10507;52.754;13.040;2023-04-07T04:17:56;101374.16;;;0.72;87.50
20696;BME280;10507;52.754;13.040;2023-04-07T04:20:24;101325.09;;;0.57;87.89
20696;BME280;10507;52.754;13.040;2023-04-07T04:22:52;101319.81;;;0.45;88.26
20696;BME280;10507;52.754;13.040;2023-04-07T04:25:20;101362.75;;;0.53;88.02
20696;BME280;10507;52.754;13.040;2023-04-07T04:27:51;101356.63;;;0.52;88.19
20696;BME280;10507;52.754;13.040;2023-04-07T04:30:19;101365.38;;;0.53;87.94
20696;BME280;10507;52.754;13.040;2023-04-07T04:32:48;101386.41;;;0.60;87.83
20696;BME280;10507;52.754;13.040;2023-04-07T04:35:18;101389.06;;;0.67;87.31
20696;BME280;10507;52.754;13.040;2023-04-07T04:37:46;101409.22;;;0.78;87.96
20696;BME280;10507;52.754;13.040;2023-04-07T04:40:14;101383.81;;;0.76;87.67
20696;BME280;10507;52.754;13.040;2023-04-07T04:42:42;101386.47;;;0.77;87.68
20696;BME280;10507;52.754;13.040;2023-04-07T04:45:10;101402.25;;;0.79;87.71
20696;BME280;10507;52.754;13.040;2023-04-07T04:47:39;101425.06;;;0.92;88.08
20696;BME280;10507;52.754;13.040;2023-04-07T04:50:09;101395.22;;;0.84;87.60
20696;BME280;10507;52.754;13.040;2023-04-07T04:52:38;101449.59;;;0.97;88.56
20696;BME280;10507;52.754;13.040;2023-04-07T04:55:07;101411.03;;;1.02;87.79
20696;BME280;10507;52.754;13.040;2023-04-07T04:57:36;101407.53;;;1.00;87.72
20696;BME280;10507;52.754;13.040;2023-04-07T05:00:05;101428.59;;;1.08;88.06
20696;BME280;10507;52.754;13.040;2023-04-07T05:02:34;101429.47;;;1.10;88.03
20696;BME280;10507;52.754;13.040;2023-04-07T05:05:02;101424.19;;;1.07;88.23
20696;BME280;10507;52.754;13.040;2023-04-07T05:07:31;101440.00;;;1.19;88.38
20696;BME280;10507;52.754;13.040;2023-04-07T05:10:00;101439.97;;;1.25;88.52
20696;BME280;10507;52.754;13.040;2023-04-07T05:12:28;101437.38;;;1.29;87.97
20696;BME280;10507;52.754;13.040;2023-04-07T05:14:56;101419.81;;;1.28;87.43
20696;BME280;10507;52.754;13.040;2023-04-07T05:17:24;101451.41;;;1.41;87.28
20696;BME280;10507;52.754;13.040;2023-04-07T05:19:52;101420.72;;;1.36;87.63
20696;BME280;10507;52.754;13.040;2023-04-07T05:22:20;101412.81;;;1.36;87.70
20696;BME280;10507;52.754;13.040;2023-04-07T05:24:49;101454.94;;;1.42;88.22
20696;BME280;10507;52.754;13.040;2023-04-07T05:27:18;101469.84;;;1.60;87.95
20696;BME280;10507;52.754;13.040;2023-04-07T05:29:47;101462.84;;;1.73;87.26
20696;BME280;10507;52.754;13.040;2023-04-07T05:32:15;101453.16;;;1.67;87.76
20696;BME280;10507;52.754;13.040;2023-04-07T05:34:43;101464.56;;;1.77;87.66
20696;BME280;10507;52.754;13.040;2023-04-07T05:37:11;101480.34;;;1.98;87.36
20696;BME280;10507;52.754;13.040;2023-04-07T05:39:39;101482.06;;;2.15;87.01
20696;BME280;10507;52.754;13.040;2023-04-07T05:42:07;101474.16;;;2.27;86.64
20696;BME280;10507;52.754;13.040;2023-04-07T05:44:36;101455.66;;;2.42;86.32
20696;BME280;10507;52.754;13.040;2023-04-07T05:47:04;101443.31;;;2.57;86.04
20696;BME280;10507;52.754;13.040;2023-04-07T05:49:34;101492.41;;;2.79;86.33
20696;BME280;10507;52.754;13.040;2023-04-07T05:52:02;101476.47;;;3.04;85.28
20696;BME280;10507;52.754;13.040;2023-04-07T05:54:31;101458.69;;;3.37;84.07
20696;BME280;10507;52.754;13.040;2023-04-07T05:56:59;101421.66;;;3.46;84.23
20696;BME280;10507;52.754;13.040;2023-04-07T05:59:27;101429.22;;;3.84;83.25
20696;BME280;10507;52.754;13.040;2023-04-07T06:01:56;101411.28;;;4.14;81.89
20696;BME280;10507;52.754;13.040;2023-04-07T06:04:24;101376.56;;;4.43;81.16
20696;BME280;10507;52.754;13.040;2023-04-07T06:06:52;101341.84;;;4.71;80.16
20696;BME280;10507;52.754;13.040;2023-04-07T06:09:21;101306.09;;;4.99;78.73
20696;BME280;10507;52.754;13.040;2023-04-07T06:11:49;101305.75;;;5.21;78.02
20696;BME280;10507;52.754;13.040;2023-04-07T06:14:17;101335.88;;;5.65;77.26
20696;BME280;10507;52.754;13.040;2023-04-07T06:16:45;101219.06;;;5.76;76.29
20696;BME280;10507;52.754;13.040;2023-04-07T06:19:15;101201.22;;;5.86;75.26
20696;BME280;10507;52.754;13.040;2023-04-07T06:21:48;101185.16;;;5.92;75.53
20696;BME280;10507;52.754;13.040;2023-04-07T06:24:20;101115.59;;;5.82;74.69
20696;BME280;10507;52.754;13.040;2023-04-07T06:26:51;101062.78;;;5.74;74.20
20696;BME280;10507;52.754;13.040;2023-04-07T06:29:21;100979.84;;;5.33;74.26
20696;BME280;10507;52.754;13.040;2023-04-07T06:31:49;101022.59;;;5.16;75.67
20696;BME280;10507;52.754;13.040;2023-04-07T06:34:18;101086.91;;;5.20;76.30
20696;BME280;10507;52.754;13.040;2023-04-07T06:36:46;101016.25;;;4.83;76.58
20696;BME280;10507;52.754;13.040;2023-04-07T06:39:15;101061.53;;;4.66;77.24
20696;BME280;10507;52.754;13.040;2023-04-07T06:41:43;101079.28;;;4.59;77.43
20696;BME280;10507;52.754;13.040;2023-04-07T06:44:12;101133.03;;;4.62;78.26
20696;BME280;10507;52.754;13.040;2023-04-07T06:46:40;101218.91;;;4.92;78.29
20696;BME280;10507;52.754;13.040;2023-04-07T06:49:11;101102.72;;;4.79;77.54
20696;BME280;10507;52.754;13.040;2023-04-07T06:51:41;101240.34;;;5.26;77.63
20696;BME280;10507;52.754;13.040;2023-04-07T06:54:09;101254.06;;;5.48;77.07
20696;BME280;10507;52.754;13.040;2023-04-07T06:56:39;101207.25;;;5.49;76.40
20696;BME280;10507;52.754;13.040;2023-04-07T06:59:08;101266.59;;;5.83;75.77
20696;BME280;10507;52.754;13.040;2023-04-07T07:01:36;101098.88;;;5.39;75.78
20696;BME280;10507;52.754;13.040;2023-04-07T07:04:05;101090.72;;;5.49;75.43
20696;BME280;10507;52.754;13.040;2023-04-07T07:06:34;101025.97;;;5.25;75.72
20696;BME280;10507;52.754;13.040;2023-04-07T07:09:04;101128.00;;;5.39;75.76
20696;BME280;10507;52.754;13.040;2023-04-07T07:11:32;100978.56;;;5.14;74.72
20696;BME280;10507;52.754;13.040;2023-04-07T07:14:00;101144.34;;;5.60;74.59
20696;BME280;10507;52.754;13.040;2023-04-07T07:16:28;101001.97;;;5.70;72.71
20696;BME280;10507;52.754;13.040;2023-04-07T07:18:55;101007.69;;;5.89;72.07
20696;BME280;10507;52.754;13.040;2023-04-07T07:21:23;100920.72;;;5.70;71.78
20696;BME280;10507;52.754;13.040;2023-04-07T07:23:55;101067.56;;;5.97;72.49
20696;BME280;10507;52.754;13.040;2023-04-07T07:26:27;100999.13;;;5.77;72.33
20696;BME280;10507;52.754;13.040;2023-04-07T07:28:56;100995.13;;;5.61;72.63
20696;BME280;10507;52.754;13.040;2023-04-07T07:31:24;101024.88;;;5.72;72.86
20696;BME280;10507;52.754;13.040;2023-04-07T07:33:53;101092.25;;;6.01;72.96
20696;BME280;10507;52.754;13.040;2023-04-07T07:36:21;101112.38;;;6.08;73.22
20696;BME280;10507;52.754;13.040;2023-04-07T07:38:52;101164.50;;;6.45;72.89
20696;BME280;10507;52.754;13.040;2023-04-07T07:41:22;101191.59;;;6.92;71.43
20696;BME280;10507;52.754;13.040;2023-04-07T07:43:52;101323.78;;;7.82;70.52
20696;BME280;10507;52.754;13.040;2023-04-07T07:46:20;101091.97;;;7.71;69.58
20696;BME280;10507;52.754;13.040;2023-04-07T07:48:50;100980.44;;;7.40;68.63
20696;BME280;10507;52.754;13.040;2023-04-07T07:51:19;100931.19;;;7.31;68.19
20696;BME280;10507;52.754;13.040;2023-04-07T07:53:47;100912.25;;;7.14;68.62
20696;BME280;10507;52.754;13.040;2023-04-07T07:56:18;101008.13;;;7.33;68.62
20696;BME280;10507;52.754;13.040;2023-04-07T07:58:47;101004.47;;;7.37;68.36
20696;BME280;10507;52.754;13.040;2023-04-07T08:01:24;100851.47;;;7.04;67.49
20696;BME280;10507;52.754;13.040;2023-04-07T08:03:55;100992.84;;;7.69;67.19
20696;BME280;10507;52.754;13.040;2023-04-07T08:06:25;100876.09;;;7.63;66.71
20696;BME280;10507;52.754;13.040;2023-04-07T08:08:55;100711.59;;;7.32;64.79
20696;BME280;10507;52.754;13.040;2023-04-07T08:11:25;100750.66;;;7.28;64.86
20696;BME280;10507;52.754;13.040;2023-04-07T08:13:58;100820.66;;;7.27;66.29
20696;BME280;10507;52.754;13.040;2023-04-07T08:16:35;100902.75;;;7.60;65.97
20696;BME280;10507;52.754;13.040;2023-04-07T08:19:07;100734.56;;;7.33;65.40
20696;BME280;10507;52.754;13.040;2023-04-07T08:21:39;100696.91;;;6.96;65.53
20696;BME280;10507;52.754;13.040;2023-04-07T08:24:16;100771.47;;;6.89;66.42
20696;BME280;10507;52.754;13.040;2023-04-07T08:27:01;100914.13;;;7.38;66.50
20696;BME280;10507;52.754;13.040;2023-04-07T08:29:29;101008.31;;;7.56;68.34
20696;BME280;10507;52.754;13.040;2023-04-07T08:32:02;100898.34;;;7.34;67.58
20696;BME280;10507;52.754;13.040;2023-04-07T08:34:31;100812.38;;;6.81;68.17
20696;BME280;10507;52.754;13.040;2023-04-07T08:37:03;100866.66;;;6.71;69.02
20696;BME280;10507;52.754;13.040;2023-04-07T08:39:32;100913.47;;;6.74;69.29
20696;BME280;10507;52.754;13.040;2023-04-07T08:42:00;100946.72;;;6.85;69.50
20696;BME280;10507;52.754;13.040;2023-04-07T08:44:28;100846.94;;;6.80;68.20
20696;BME280;10507;52.754;13.040;2023-04-07T08:51:02;101028.53;;;7.02;69.38
20696;BME280;10507;52.754;13.040;2023-04-07T08:53:43;100983.47;;;6.99;69.70
20696;BME280;10507;52.754;13.040;2023-04-07T08:56:21;100855.13;;;6.72;68.23
20696;BME280;10507;52.754;13.040;2023-04-07T08:58:53;100880.50;;;6.81;68.65
20696;BME280;10507;52.754;13.040;2023-04-07T09:01:25;100907.78;;;6.86;68.78
20696;BME280;10507;52.754;13.040;2023-04-07T09:03:56;100985.13;;;7.03;69.20
20696;BME280;10507;52.754;13.040;2023-04-07T09:06:35;100887.72;;;7.05;68.23
20696;BME280;10507;52.754;13.040;2023-04-07T09:09:04;100960.28;;;7.34;67.66
20696;BME280;10507;52.754;13.040;2023-04-07T09:11:38;101001.78;;;7.38;67.80
20696;BME280;10507;52.754;13.040;2023-04-07T09:14:07;100899.03;;;7.11;68.54
20696;BME280;10507;52.754;13.040;2023-04-07T09:16:51;100887.69;;;7.07;68.33
20696;BME280;10507;52.754;13.040;2023-04-07T09:19:23;100845.00;;;6.85;68.56
20696;BME280;10507;52.754;13.040;2023-04-07T09:21:54;100919.88;;;6.96;68.25
20696;BME280;10507;52.754;13.040;2023-04-07T09:24:24;101081.81;;;7.26;70.22
20696;BME280;10507;52.754;13.040;2023-04-07T09:27:08;100921.03;;;6.86;69.52
20696;BME280;10507;52.754;13.040;2023-04-07T09:29:38;101089.91;;;6.90;72.42
20696;BME280;10507;52.754;13.040;2023-04-07T09:32:07;101052.75;;;6.90;71.41
20696;BME280;10507;52.754;13.040;2023-04-07T09:34:36;101037.31;;;6.73;72.21
20696;BME280;10507;52.754;13.040;2023-04-07T09:37:20;101124.50;;;6.87;73.22
20696;BME280;10507;52.754;13.040;2023-04-07T09:39:51;101106.81;;;6.86;73.08
20696;BME280;10507;52.754;13.040;2023-04-07T09:42:20;101211.94;;;6.93;74.23
20696;BME280;10507;52.754;13.040;2023-04-07T09:44:48;101200.22;;;7.02;73.40
20696;BME280;10507;52.754;13.040;2023-04-07T09:47:16;101199.06;;;7.11;73.58
20696;BME280;10507;52.754;13.040;2023-04-07T09:49:49;101169.09;;;7.07;73.30
20696;BME280;10507;52.754;13.040;2023-04-07T09:52:24;101200.56;;;6.88;75.22
20696;BME280;10507;52.754;13.040;2023-04-07T09:54:54;101216.09;;;6.69;75.95
20696;BME280;10507;52.754;13.040;2023-04-07T09:57:22;101238.13;;;6.73;75.85
20696;BME280;10507;52.754;13.040;2023-04-07T09:59:52;101269.06;;;6.74;76.49
20696;BME280;10507;52.754;13.040;2023-04-07T10:02:21;101264.97;;;6.59;77.17
20696;BME280;10507;52.754;13.040;2023-04-07T10:04:52;101357.34;;;6.82;77.50
20696;BME280;10507;52.754;13.040;2023-04-07T10:07:21;101388.84;;;6.96;78.03
20696;BME280;10507;52.754;13.040;2023-04-07T10:09:49;101391.94;;;7.15;77.81
20696;BME280;10507;52.754;13.040;2023-04-07T10:12:18;101443.50;;;7.43;78.02
20696;BME280;10507;52.754;13.040;2023-04-07T10:14:46;101409.72;;;7.48;78.01
20696;BME280;10507;52.754;13.040;2023-04-07T10:17:16;101366.69;;;7.34;77.45
20696;BME280;10507;52.754;13.040;2023-04-07T10:19:47;101358.72;;;6.97;79.71
20696;BME280;10507;52.754;13.040;2023-04-07T10:22:17;101449.81;;;7.00;81.08
20696;BME280;10507;52.754;13.040;2023-04-07T10:24:51;101451.97;;;6.83;81.74
20696;BME280;10507;52.754;13.040;2023-04-07T10:27:28;101477.72;;;6.78;82.28
20696;BME280;10507;52.754;13.040;2023-04-07T10:30:02;101528.94;;;6.81;83.13
20696;BME280;10507;52.754;13.040;2023-04-07T10:32:45;101478.28;;;6.50;84.33
20696;BME280;10507;52.754;13.040;2023-04-07T10:35:16;101537.34;;;6.61;84.86
20696;BME280;10507;52.754;13.040;2023-04-07T10:38:09;101538.97;;;6.69;85.47
20696;BME280;10507;52.754;13.040;2023-04-07T10:40:42;101552.81;;;6.83;85.27
20696;BME280;10507;52.754;13.040;2023-04-07T10:43:36;101518.81;;;6.58;85.81
20696;BME280;10507;52.754;13.040;2023-04-07T10:46:18;101571.09;;;6.52;87.25
20696;BME280;10507;52.754;13.040;2023-04-07T10:49:12;101578.09;;;6.57;87.17
20696;BME280;10507;52.754;13.040;2023-04-07T10:52:20;101595.28;;;6.83;86.96
20696;BME280;10507;52.754;13.040;2023-04-07T10:55:29;101587.41;;;6.80;87.63
20696;BME280;10507;52.754;13.040;2023-04-07T10:58:22;101586.44;;;6.84;87.57
20696;BME280;10507;52.754;13.040;2023-04-07T11:01:19;101584.44;;;6.47;89.47
20696;BME280;10507;52.754;13.040;2023-04-07T11:04:01;101615.25;;;6.57;89.88
20696;BME280;10507;52.754;13.040;2023-04-07T11:06:51;101650.41;;;6.69;90.91
20696;BME280;10507;52.754;13.040;2023-04-07T11:09:33;101630.72;;;6.82;91.86
20696;BME280;10507;52.754;13.040;2023-04-07T11:12:21;101623.44;;;6.92;91.76
20696;BME280;10507;52.754;13.040;2023-04-07T11:15:23;101629.09;;;6.73;93.22
20696;BME280;10507;52.754;13.040;2023-04-07T11:18:06;101629.09;;;6.73;93.22
20696;BME280;10507;52.754;13.040;2023-04-07T11:20:42;101559.38;;;6.63;93.93
20696;BME280;10507;52.754;13.040;2023-04-07T11:23:12;101571.19;;;6.47;93.95
20696;BME280;10507;52.754;13.040;2023-04-07T11:25:41;101583.31;;;6.62;94.44
20696;BME280;10507;52.754;13.040;2023-04-07T11:28:11;101587.09;;;6.47;95.57
20696;BME280;10507;52.754;13.040;2023-04-07T11:30:49;101593.59;;;6.31;96.26
20696;BME280;10507;52.754;13.040;2023-04-07T11:33:19;101560.25;;;6.14;96.36
20696;BME280;10507;52.754;13.040;2023-04-07T11:35:50;101583.00;;;6.28;96.88
20696;BME280;10507;52.754;13.040;2023-04-07T11:38:19;101565.28;;;6.33;96.97
20696;BME280;10507;52.754;13.040;2023-04-07T11:40:48;101552.28;;;6.17;97.45
20696;BME280;10507;52.754;13.040;2023-04-07T11:43:21;101553.97;;;6.21;97.72
20696;BME280;10507;52.754;13.040;2023-04-07T11:46:07;101528.44;;;6.14;98.03
20696;BME280;10507;52.754;13.040;2023-04-07T11:48:38;101551.19;;;6.29;97.89
20696;BME280;10507;52.754;13.040;2023-04-07T11:51:14;101557.31;;;6.33;98.20
20696;BME280;10507;52.754;13.040;2023-04-07T11:53:43;101575.66;;;6.45;98.72
20696;BME280;10507;52.754;13.040;2023-04-07T11:56:14;101530.13;;;6.21;98.61
20696;BME280;10507;52.754;13.040;2023-04-07T11:58:47;101538.84;;;6.28;98.48
20696;BME280;10507;52.754;13.040;2023-04-07T12:01:17;101573.84;;;6.45;99.08
20696;BME280;10507;52.754;13.040;2023-04-07T12:03:57;101558.66;;;6.55;98.93
20696;BME280;10507;52.754;13.040;2023-04-07T12:06:28;101509.44;;;6.39;98.58
20696;BME280;10507;52.754;13.040;2023-04-07T12:08:59;101558.75;;;6.51;99.87
20696;BME280;10507;52.754;13.040;2023-04-07T12:11:27;101525.13;;;6.51;98.74
20696;BME280;10507;52.754;13.040;2023-04-07T12:13:56;101499.47;;;6.52;99.05
20696;BME280;10507;52.754;13.040;2023-04-07T12:16:26;101535.09;;;6.85;99.48
20696;BME280;10507;52.754;13.040;2023-04-07T12:18:54;101501.81;;;6.69;98.64
20696;BME280;10507;52.754;13.040;2023-04-07T12:21:23;101518.75;;;6.61;99.30
20696;BME280;10507;52.754;13.040;2023-04-07T12:23:52;101511.22;;;6.40;100.00
20696;BME280;10507;52.754;13.040;2023-04-07T12:26:20;101533.06;;;6.53;100.00
20696;BME280;10507;52.754;13.040;2023-04-07T12:28:51;101562.78;;;6.70;100.00
20696;BME280;10507;52.754;13.040;2023-04-07T12:31:25;101489.16;;;6.36;100.00
20696;BME280;10507;52.754;13.040;2023-04-07T12:33:55;101512.19;;;6.34;100.00
20696;BME280;10507;52.754;13.040;2023-04-07T12:36:23;101500.94;;;6.21;100.00
20696;BME280;10507;52.754;13.040;2023-04-07T12:38:51;101500.19;;;6.15;100.00
20696;BME280;10507;52.754;13.040;2023-04-07T12:41:19;101518.50;;;6.29;100.00
20696;BME280;10507;52.754;13.040;2023-04-07T12:43:48;101527.22;;;6.34;100.00
20696;BME280;10507;52.754;13.040;2023-04-07T12:46:18;101528.06;;;6.36;100.00
20696;BME280;10507;52.754;13.040;2023-04-07T12:48:46;101514.28;;;6.17;100.00
20696;BME280;10507;52.754;13.040;2023-04-07T12:51:16;101499.44;;;6.07;100.00
20696;BME280;10507;52.754;13.040;2023-04-07T12:53:44;101514.44;;;6.08;100.00
20696;BME280;10507;52.754;13.040;2023-04-07T12:56:14;101519.78;;;6.06;100.00
20696;BME280;10507;52.754;13.040;2023-04-07T12:58:43;101528.59;;;6.07;100.00
20696;BME280;10507;52.754;13.040;2023-04-07T13:01:12;101536.47;;;6.11;100.00
20696;BME280;10507;52.754;13.040;2023-04-07T13:03:40;101529.47;;;6.07;100.00
20696;BME280;10507;52.754;13.040;2023-04-07T13:06:09;101561.03;;;6.21;100.00
20696;BME280;10507;52.754;13.040;2023-04-07T13:08:39;101551.34;;;6.20;100.00
20696;BME280;10507;52.754;13.040;2023-04-07T13:11:07;101547.84;;;6.18;100.00
20696;BME280;10507;52.754;13.040;2023-04-07T13:13:35;101494.41;;;5.88;100.00
20696;BME280;10507;52.754;13.040;2023-04-07T13:16:04;101516.41;;;5.93;100.00